Time;durP1;ratioP1;P1;durP2;ratioP2;P2;SDS_P1;SDS_P2;PMS_P1;PMS_P2;Temp;Humidity;BMP_temperature;BMP_pressure;BME280_temperature;BME280_humidity;BME280_pressure;Samples;Min_cycle;Max_cycle;Signal;HPM_P1;HPM_P2
2023/07/15 00:00:14;;;;;;;0.20;0.20;;;20.40;99.90;;;;;;5048853;28;20045;-80
2023/07/15 00:02:42;;;;;;;0.20;0.20;;;20.40;99.90;;;;;;5044599;28;20132;-80
2023/07/15 00:05:27;;;;;;;0.20;0.20;;;20.30;99.90;;;;;;5043765;28;20041;-80
2023/07/15 00:07:52;;;;;;;0.20;0.20;;;20.30;99.90;;;;;;5048359;28;20043;-80
2023/07/15 00:10:21;;;;;;;0.20;0.20;;;20.30;99.90;;;;;;5045115;28;20029;-80
2023/07/15 00:12:47;;;;;;;0.20;0.20;;;20.30;99.90;;;;;;5044625;28;20045;-79
2023/07/15 00:15:13;;;;;;;0.13;0.13;;;20.30;99.90;;;;;;5043692;28;20622;-79
2023/07/15 00:17:39;;;;;;;0.20;0.20;;;20.30;99.90;;;;;;5045948;28;20041;-79
2023/07/15 00:20:07;;;;;;;0.20;0.20;;;20.30;99.90;;;;;;5049874;28;20044;-80
2023/07/15 00:22:35;;;;;;;0.20;0.20;;;20.30;99.90;;;;;;5046718;28;20476;-80
2023/07/15 00:25:05;;;;;;;0.10;0.10;;;20.30;99.90;;;;;;5047202;28;20120;-79
2023/07/15 00:27:31;;;;;;;0.10;0.10;;;20.30;99.90;;;;;;5046940;28;20129;-80
2023/07/15 00:29:56;;;;;;;0.20;0.20;;;20.30;99.90;;;;;;5047443;28;20060;-80
2023/07/15 00:32:22;;;;;;;0.20;0.20;;;20.30;99.90;;;;;;5049746;28;20554;-79
2023/07/15 00:34:48;;;;;;;0.20;0.20;;;20.20;99.90;;;;;;5032881;28;20382;-80
2023/07/15 00:37:13;;;;;;;0.20;0.20;;;20.20;99.90;;;;;;5044607;28;20507;-80
2023/07/15 00:39:40;;;;;;;0.20;0.20;;;20.20;99.90;;;;;;5049496;28;20037;-80
2023/07/15 00:42:13;;;;;;;0.20;0.20;;;20.20;99.90;;;;;;5048683;28;20045;-80
2023/07/15 00:44:39;;;;;;;0.20;0.20;;;20.20;99.90;;;;;;5024978;28;20045;-80
2023/07/15 00:47:14;;;;;;;0.20;0.20;;;20.20;99.90;;;;;;5048382;28;20048;-80
2023/07/15 00:49:42;;;;;;;0.17;0.17;;;20.20;99.90;;;;;;5031332;28;20098;-80
2023/07/15 00:52:14;;;;;;;0.20;0.20;;;20.20;99.90;;;;;;5032185;28;20479;-80
2023/07/15 00:54:44;;;;;;;0.20;0.20;;;20.10;99.90;;;;;;5033724;28;20033;-79
2023/07/15 00:57:15;;;;;;;0.20;0.20;;;20.20;99.90;;;;;;5047559;28;20548;-80
2023/07/15 00:59:43;;;;;;;0.20;0.20;;;20.10;99.90;;;;;;5027881;28;20037;-80
2023/07/15 01:02:10;;;;;;;0.20;0.20;;;20.20;99.90;;;;;;5031509;28;20647;-80
2023/07/15 01:04:35;;;;;;;0.20;0.20;;;20.20;99.90;;;;;;5024935;28;20064;-79
2023/07/15 01:07:02;;;;;;;0.20;0.20;;;20.20;99.90;;;;;;5030937;28;20067;-80
2023/07/15 01:09:28;;;;;;;0.20;0.20;;;20.10;99.90;;;;;;5027451;28;20048;-80
2023/07/15 01:11:54;;;;;;;0.20;0.20;;;20.20;99.90;;;;;;5047013;28;20045;-79
2023/07/15 01:14:20;;;;;;;0.17;0.17;;;20.20;99.90;;;;;;5028596;28;20110;-80
2023/07/15 01:16:47;;;;;;;0.20;0.20;;;20.10;99.90;;;;;;5025556;28;20047;-80
2023/07/15 01:19:14;;;;;;;0.10;0.10;;;20.10;99.90;;;;;;5027344;28;20037;-80
2023/07/15 01:21:40;;;;;;;0.20;0.20;;;20.20;99.90;;;;;;5047017;28;20053;-80
2023/07/15 01:24:08;;;;;;;0.17;0.17;;;20.20;99.90;;;;;;5030318;28;20045;-80
2023/07/15 01:26:34;;;;;;;0.20;0.20;;;20.10;99.90;;;;;;5028939;28;20473;-80
2023/07/15 01:29:00;;;;;;;0.20;0.20;;;20.20;99.90;;;;;;5028327;28;20036;-80
2023/07/15 01:31:30;;;;;;;0.10;0.10;;;20.20;99.90;;;;;;5029750;28;20103;-79
2023/07/15 01:33:55;;;;;;;0.20;0.20;;;20.10;99.90;;;;;;5045589;28;20456;-80
2023/07/15 01:36:24;;;;;;;0.20;0.20;;;20.10;99.90;;;;;;5041647;28;20128;-80
2023/07/15 01:38:49;;;;;;;0.20;0.20;;;20.20;99.90;;;;;;5044683;28;20053;-80
2023/07/15 01:41:15;;;;;;;0.20;0.20;;;20.20;99.90;;;;;;5045128;28;20055;-80
2023/07/15 01:43:41;;;;;;;0.20;0.20;;;20.10;99.90;;;;;;5047348;28;20033;-80
2023/07/15 01:46:07;;;;;;;0.20;0.20;;;20.10;99.90;;;;;;5044538;28;20052;-80
2023/07/15 01:48:35;;;;;;;0.20;0.20;;;20.10;99.90;;;;;;5045815;28;20088;-80
2023/07/15 01:51:00;;;;;;;0.20;0.20;;;20.20;99.90;;;;;;5045378;28;20049;-81
2023/07/15 01:53:27;;;;;;;0.20;0.20;;;20.10;99.90;;;;;;5043850;28;20033;-80
2023/07/15 01:55:53;;;;;;;0.20;0.20;;;20.20;99.90;;;;;;5043967;28;20073;-80
2023/07/15 01:58:20;;;;;;;0.20;0.20;;;20.10;99.90;;;;;;5044393;28;20107;-80
2023/07/15 02:00:46;;;;;;;0.20;0.20;;;20.20;99.90;;;;;;5045390;28;20120;-79
2023/07/15 02:03:12;;;;;;;0.20;0.20;;;20.20;99.90;;;;;;5043379;28;20045;-80
2023/07/15 02:05:38;;;;;;;0.20;0.20;;;20.10;99.90;;;;;;5043147;28;20139;-79
2023/07/15 02:08:04;;;;;;;0.20;0.20;;;20.10;99.90;;;;;;5044442;28;20471;-79
2023/07/15 02:10:30;;;;;;;0.20;0.20;;;20.10;99.90;;;;;;5048112;28;20098;-79
2023/07/15 02:12:56;;;;;;;0.20;0.20;;;20.10;99.90;;;;;;5051308;28;20055;-80
2023/07/15 02:15:21;;;;;;;0.20;0.20;;;20.20;99.90;;;;;;5052175;28;20045;-80
2023/07/15 02:17:47;;;;;;;0.20;0.20;;;20.20;99.90;;;;;;5049917;28;20044;-80
2023/07/15 02:20:13;;;;;;;0.20;0.20;;;20.10;99.90;;;;;;5052729;28;20068;-80
2023/07/15 02:22:39;;;;;;;0.13;0.13;;;20.20;99.90;;;;;;5049753;28;20049;-80
2023/07/15 02:25:06;;;;;;;0.20;0.20;;;20.10;99.90;;;;;;5049876;28;20056;-80
2023/07/15 02:27:31;;;;;;;0.20;0.20;;;20.10;99.90;;;;;;5051781;28;20055;-79
2023/07/15 02:29:57;;;;;;;0.10;0.10;;;20.10;99.90;;;;;;5051872;28;20049;-80
2023/07/15 02:32:42;;;;;;;0.20;0.20;;;20.10;99.90;;;;;;5049604;28;20102;-80
2023/07/15 02:35:13;;;;;;;0.20;0.20;;;20.10;99.90;;;;;;5027171;28;20592;-80
2023/07/15 02:37:40;;;;;;;;;;;20.00;99.90;;;;;;5033890;28;20072;-79
2023/07/15 02:40:08;;;;;;;0.20;0.20;;;20.00;99.90;;;;;;5051567;28;19928;-79
2023/07/15 02:42:33;;;;;;;0.20;0.20;;;20.00;99.90;;;;;;5034191;28;20041;-81
2023/07/15 02:45:04;;;;;;;0.10;0.10;;;20.00;99.90;;;;;;5051436;28;20483;-80
2023/07/15 02:47:31;;;;;;;0.25;0.25;;;20.00;99.90;;;;;;5051495;28;20041;-79
2023/07/15 02:50:06;;;;;;;0.17;0.17;;;20.00;99.90;;;;;;5051669;28;20033;-80
2023/07/15 02:52:33;;;;;;;0.10;0.10;;;20.00;99.90;;;;;;5051244;28;20041;-80
2023/07/15 02:55:00;;;;;;;0.20;0.20;;;20.00;99.90;;;;;;5033807;28;20041;-79
2023/07/15 02:57:27;;;;;;;0.20;0.20;;;20.00;99.90;;;;;;5038563;28;20048;-80
2023/07/15 02:59:53;;;;;;;0.13;0.13;;;20.00;99.90;;;;;;5031610;28;20084;-81
2023/07/15 03:02:20;;;;;;;0.20;0.20;;;20.00;99.90;;;;;;5028708;28;20128;-79
2023/07/15 03:04:46;;;;;;;0.20;0.20;;;19.90;99.90;;;;;;5030775;28;20554;-80
2023/07/15 03:07:15;;;;;;;0.20;0.20;;;19.90;99.90;;;;;;5046139;28;20551;-79
2023/07/15 03:09:41;;;;;;;0.15;0.15;;;19.90;99.90;;;;;;5028469;28;20041;-79
2023/07/15 03:12:08;;;;;;;0.10;0.10;;;19.90;99.90;;;;;;5048949;28;20048;-80
2023/07/15 03:14:34;;;;;;;0.13;0.13;;;19.90;99.90;;;;;;5049724;28;20040;-80
2023/07/15 03:17:01;;;;;;;0.15;0.15;;;19.90;99.90;;;;;;5030614;28;20048;-79
2023/07/15 03:19:26;;;;;;;0.20;0.20;;;19.80;99.90;;;;;;5022711;28;20041;-79
2023/07/15 03:21:52;;;;;;;0.20;0.20;;;19.90;99.90;;;;;;5047903;28;20067;-80
2023/07/15 03:24:18;;;;;;;0.10;0.10;;;19.90;99.90;;;;;;5050253;28;20160;-79
2023/07/15 03:26:44;;;;;;;0.20;0.20;;;19.90;99.90;;;;;;5051757;28;20124;-81
2023/07/15 03:29:10;;;;;;;0.20;0.20;;;19.90;99.90;;;;;;5031001;28;20041;-80
2023/07/15 03:31:36;;;;;;;0.10;0.10;;;19.90;99.90;;;;;;5034912;28;20124;-80
2023/07/15 03:34:02;;;;;;;0.13;0.13;;;19.90;99.80;;;;;;5050348;28;20045;-79
2023/07/15 03:36:28;;;;;;;0.17;0.17;;;19.90;99.70;;;;;;5049885;28;20051;-80
2023/07/15 03:38:54;;;;;;;0.10;0.10;;;19.90;99.50;;;;;;5048899;28;20041;-80
2023/07/15 03:41:19;;;;;;;0.20;0.20;;;20.00;99.40;;;;;;5049645;28;20041;-80
2023/07/15 03:43:45;;;;;;;0.20;0.20;;;20.00;99.10;;;;;;5047971;28;20037;-80
2023/07/15 03:46:12;;;;;;;0.20;0.20;;;20.10;98.80;;;;;;5049961;28;20114;-80
2023/07/15 03:48:39;;;;;;;0.20;0.20;;;20.10;98.70;;;;;;5046657;28;20072;-80
2023/07/15 03:51:06;;;;;;;0.17;0.17;;;20.20;98.60;;;;;;5048625;28;20088;-79
2023/07/15 03:53:32;;;;;;;0.20;0.20;;;20.30;98.50;;;;;;5051144;28;20033;-80
2023/07/15 03:55:58;;;;;;;0.20;0.20;;;20.30;98.30;;;;;;5047819;28;20035;-79
2023/07/15 03:58:23;;;;;;;0.20;0.20;;;20.30;98.20;;;;;;5050403;28;20041;-80
2023/07/15 04:00:49;;;;;;;0.15;0.15;;;20.30;98.10;;;;;;5048814;28;20083;-80
2023/07/15 04:03:15;;;;;;;0.20;0.20;;;20.40;98.00;;;;;;5048892;28;20049;-80
2023/07/15 04:05:40;;;;;;;0.10;0.10;;;20.40;97.90;;;;;;5048807;28;20579;-79
2023/07/15 04:08:06;;;;;;;0.20;0.20;;;20.40;97.90;;;;;;5045652;28;20045;-80
2023/07/15 04:10:32;;;;;;;0.20;0.20;;;20.40;97.90;;;;;;5048971;28;20098;-79
2023/07/15 04:12:58;;;;;;;0.20;0.20;;;20.40;97.90;;;;;;5046399;28;20440;-79
2023/07/15 04:15:23;;;;;;;0.10;0.10;;;20.40;97.80;;;;;;5048783;28;20049;-79
2023/07/15 04:17:49;;;;;;;0.20;0.20;;;20.40;97.80;;;;;;5048740;28;20092;-78
2023/07/15 04:20:17;;;;;;;0.10;0.10;;;20.50;97.80;;;;;;5045604;28;20045;-79
2023/07/15 04:22:43;;;;;;;0.20;0.20;;;20.40;97.80;;;;;;5046599;28;20072;-79
2023/07/15 04:25:11;;;;;;;0.20;0.20;;;20.50;97.60;;;;;;5048898;28;20442;-80
2023/07/15 04:27:40;;;;;;;0.20;0.20;;;20.50;97.60;;;;;;5049056;28;20059;-79
2023/07/15 04:30:06;;;;;;;0.20;0.20;;;20.50;97.60;;;;;;5046707;28;20485;-79
2023/07/15 04:32:32;;;;;;;0.20;0.20;;;20.50;97.70;;;;;;5045971;28;20049;-79
2023/07/15 04:34:58;;;;;;;0.20;0.20;;;20.50;97.60;;;;;;5047994;28;20385;-78
2023/07/15 04:37:25;;;;;;;0.20;0.20;;;20.50;97.70;;;;;;5048804;28;20052;-79
2023/07/15 04:39:51;;;;;;;0.20;0.20;;;20.50;97.70;;;;;;5046353;28;20124;-79
2023/07/15 04:42:17;;;;;;;0.10;0.10;;;20.50;97.70;;;;;;5048453;28;20139;-79
2023/07/15 04:44:43;;;;;;;0.20;0.20;;;20.50;97.70;;;;;;5048544;28;20060;-79
2023/07/15 04:47:09;;;;;;;0.20;0.20;;;20.50;97.80;;;;;;5049399;28;20045;-79
2023/07/15 04:49:35;;;;;;;0.20;0.20;;;20.50;97.80;;;;;;5049896;28;20041;-79
2023/07/15 04:52:01;;;;;;;0.20;0.20;;;20.50;97.70;;;;;;5047041;28;20049;-79
2023/07/15 04:54:29;;;;;;;0.20;0.20;;;20.50;97.70;;;;;;5046900;28;20043;-79
2023/07/15 04:56:58;;;;;;;0.20;0.20;;;20.60;97.80;;;;;;5042454;28;20045;-79
2023/07/15 04:59:25;;;;;;;0.20;0.20;;;20.60;97.80;;;;;;5047420;28;20079;-79
2023/07/15 05:01:51;;;;;;;0.20;0.20;;;20.60;97.90;;;;;;5046570;28;20588;-79
2023/07/15 05:04:17;;;;;;;0.20;0.20;;;20.60;97.80;;;;;;5045375;28;20048;-79
2023/07/15 05:06:43;;;;;;;0.20;0.20;;;20.60;97.80;;;;;;5047817;28;20037;-77
2023/07/15 05:09:10;;;;;;;0.17;0.17;;;20.70;97.80;;;;;;5045095;28;20113;-78
2023/07/15 05:11:35;;;;;;;0.20;0.20;;;20.70;97.70;;;;;;5048106;28;20032;-79
2023/07/15 05:14:02;;;;;;;0.30;0.30;;;20.70;97.80;;;;;;5048897;28;20072;-79
2023/07/15 05:16:28;;;;;;;0.20;0.20;;;20.80;97.60;;;;;;5047462;28;20052;-79
2023/07/15 05:18:54;;;;;;;0.20;0.20;;;20.80;97.80;;;;;;5046426;28;20501;-78
2023/07/15 05:21:19;;;;;;;0.20;0.20;;;20.80;97.80;;;;;;5046161;28;20122;-79
2023/07/15 05:23:45;;;;;;;0.10;0.10;;;20.80;97.80;;;;;;5047356;28;20039;-79
2023/07/15 05:26:11;;;;;;;0.20;0.20;;;20.80;97.80;;;;;;5049440;28;20049;-79
2023/07/15 05:28:38;;;;;;;0.20;0.20;;;20.80;97.80;;;;;;5045932;28;20083;-79
2023/07/15 05:31:04;;;;;;;0.20;0.20;;;20.80;97.90;;;;;;5047380;28;20056;-79
2023/07/15 05:33:30;;;;;;;0.20;0.20;;;20.80;97.90;;;;;;5029944;28;20053;-78
2023/07/15 05:35:56;;;;;;;0.17;0.17;;;20.80;97.90;;;;;;5028623;28;20041;-79
2023/07/15 05:38:23;;;;;;;0.20;0.20;;;20.90;98.10;;;;;;5025340;28;20064;-79
2023/07/15 05:40:50;;;;;;;0.20;0.20;;;20.90;98.10;;;;;;5044921;28;20079;-79
2023/07/15 05:43:15;;;;;;;0.20;0.20;;;20.90;98.10;;;;;;5046745;28;20041;-78
2023/07/15 05:45:41;;;;;;;0.10;0.10;;;21.00;98.00;;;;;;5032412;28;20106;-80
2023/07/15 05:48:07;;;;;;;0.10;0.10;;;21.00;98.00;;;;;;5035560;28;20045;-79
2023/07/15 05:50:36;;;;;;;0.20;0.20;;;21.00;98.00;;;;;;5037363;28;20044;-79
2023/07/15 05:53:03;;;;;;;0.20;0.20;;;21.10;98.10;;;;;;5037381;28;20056;-80
2023/07/15 05:55:28;;;;;;;0.20;0.20;;;21.10;98.10;;;;;;5053959;28;20630;-80
2023/07/15 05:57:54;;;;;;;0.20;0.20;;;21.10;98.20;;;;;;5017281;28;20040;-80
2023/07/15 06:00:36;;;;;;;0.20;0.20;;;21.20;98.20;;;;;;5035573;28;20055;-80
2023/07/15 06:03:03;;;;;;;0.20;0.20;;;21.20;98.20;;;;;;5047632;28;20104;-79
2023/07/15 06:05:30;;;;;;;0.20;0.20;;;21.20;98.10;;;;;;5037874;28;20044;-79
2023/07/15 06:07:56;;;;;;;0.20;0.20;;;21.20;98.10;;;;;;5036721;28;20115;-80
2023/07/15 06:10:24;;;;;;;0.20;0.20;;;21.30;98.40;;;;;;5054828;28;20040;-79
2023/07/15 06:12:53;;;;;;;0.20;0.20;;;21.40;98.50;;;;;;5034831;28;20041;-79
2023/07/15 06:15:31;;;;;;;0.20;0.20;;;21.30;98.70;;;;;;5034898;28;20127;-79
2023/07/15 06:17:59;;;;;;;0.20;0.20;;;21.50;99.00;;;;;;5036198;28;20052;-79
2023/07/15 06:20:24;;;;;;;0.20;0.20;;;21.30;99.10;;;;;;5033518;28;20501;-74
2023/07/15 06:22:50;;;;;;;0.20;0.20;;;21.60;99.40;;;;;;5033727;28;20040;-75
2023/07/15 06:25:16;;;;;;;0.20;0.20;;;21.60;99.50;;;;;;5056228;28;20037;-75
2023/07/15 06:27:42;;;;;;;0.20;0.20;;;21.70;99.70;;;;;;5035481;28;20045;-75
2023/07/15 06:30:08;;;;;;;0.20;0.20;;;21.80;99.80;;;;;;5034342;28;20182;-75
2023/07/15 06:32:35;;;;;;;0.20;0.20;;;21.80;99.90;;;;;;5048071;28;20052;-75
2023/07/15 06:35:00;;;;;;;0.20;0.20;;;21.90;99.80;;;;;;5054218;28;20086;-75
2023/07/15 06:37:26;;;;;;;0.20;0.20;;;21.90;99.80;;;;;;5037514;28;20087;-75
2023/07/15 06:39:52;;;;;;;0.17;0.17;;;22.00;99.90;;;;;;5037882;28;20040;-75
2023/07/15 06:42:18;;;;;;;0.20;0.20;;;22.00;99.80;;;;;;5036783;28;20053;-75
2023/07/15 06:44:44;;;;;;;0.20;0.20;;;22.00;99.90;;;;;;5034924;28;20037;-75
2023/07/15 06:47:09;;;;;;;0.20;0.20;;;22.10;99.90;;;;;;5055490;28;20044;-74
2023/07/15 06:49:35;;;;;;;0.20;0.20;;;22.10;99.90;;;;;;5038166;28;20244;-74
2023/07/15 06:52:00;;;;;;;0.20;0.20;;;22.10;99.90;;;;;;5054338;28;20056;-75
2023/07/15 06:54:29;;;;;;;0.20;0.20;;;22.20;99.90;;;;;;5037260;28;20036;-75
2023/07/15 06:56:55;;;;;;;0.20;0.20;;;22.20;99.90;;;;;;5047778;28;20167;-74
2023/07/15 06:59:20;;;;;;;0.22;0.22;;;22.30;99.90;;;;;;5023893;28;20171;-74
2023/07/15 07:01:46;;;;;;;0.20;0.20;;;22.30;99.90;;;;;;5029462;28;20149;-75
2023/07/15 07:04:12;;;;;;;0.20;0.20;;;22.30;99.90;;;;;;5024313;28;20033;-74
2023/07/15 07:06:37;;;;;;;0.20;0.20;;;22.40;99.90;;;;;;5030863;28;20508;-77
2023/07/15 07:09:03;;;;;;;0.20;0.20;;;22.40;99.90;;;;;;5050419;28;20362;-77
2023/07/15 07:11:29;;;;;;;0.20;0.20;;;22.50;99.80;;;;;;5027282;28;20493;-76
2023/07/15 07:13:54;;;;;;;0.20;0.20;;;22.50;99.80;;;;;;5043576;28;20049;-77
2023/07/15 07:16:20;;;;;;;0.20;0.20;;;22.60;99.90;;;;;;5052068;28;20040;-77
2023/07/15 07:18:46;;;;;;;0.20;0.20;;;22.60;99.90;;;;;;5030058;28;20045;-76
2023/07/15 07:21:12;;;;;;;0.20;0.20;;;22.60;99.90;;;;;;5030605;28;20079;-78
2023/07/15 07:23:37;;;;;;;0.20;0.20;;;22.60;99.90;;;;;;5030636;28;20045;-77
2023/07/15 07:26:03;;;;;;;0.20;0.20;;;22.60;99.90;;;;;;5032274;28;20181;-76
2023/07/15 07:28:55;;;;;;;0.20;0.20;;;22.70;99.90;;;;;;5032663;28;20065;-77
2023/07/15 07:31:21;;;;;;;0.20;0.20;;;22.70;99.90;;;;;;5044328;28;20048;-78
2023/07/15 07:33:47;;;;;;;0.15;0.15;;;22.80;99.90;;;;;;5029099;28;20584;-77
2023/07/15 07:36:13;;;;;;;0.20;0.20;;;22.80;99.90;;;;;;5027894;28;20056;-78
2023/07/15 07:38:39;;;;;;;0.20;0.20;;;22.90;99.90;;;;;;5030151;28;20049;-77
2023/07/15 07:41:06;;;;;;;0.20;0.20;;;22.90;99.90;;;;;;5026701;28;20053;-77
2023/07/15 07:43:36;;;;;;;0.20;0.20;;;23.00;99.90;;;;;;5029941;28;20036;-78
2023/07/15 07:46:04;;;;;;;0.20;0.20;;;23.10;99.90;;;;;;5029389;28;20045;-75
2023/07/15 07:48:30;;;;;;;0.20;0.20;;;23.10;99.90;;;;;;5050877;28;20045;-76
2023/07/15 07:50:56;;;;;;;0.20;0.20;;;23.20;99.90;;;;;;5052095;28;20104;-78
2023/07/15 07:53:23;;;;;;;0.20;0.20;;;23.20;99.90;;;;;;5049713;28;20769;-78
2023/07/15 07:55:50;;;;;;;0.20;0.20;;;23.30;99.90;;;;;;5033841;28;20188;-77
2023/07/15 07:58:16;;;;;;;0.20;0.20;;;23.40;99.90;;;;;;5025837;28;20500;-78
2023/07/15 08:00:41;;;;;;;0.20;0.20;;;23.50;99.90;;;;;;5044531;28;20037;-77
2023/07/15 08:03:07;;;;;;;0.20;0.20;;;23.60;99.90;;;;;;5026341;28;20063;-78
2023/07/15 08:05:33;;;;;;;0.20;0.20;;;23.60;99.90;;;;;;5025728;28;20129;-77
2023/07/15 08:07:58;;;;;;;0.20;0.20;;;23.70;99.90;;;;;;5023221;28;20067;-78
2023/07/15 08:10:24;;;;;;;0.20;0.20;;;23.80;99.80;;;;;;5023204;28;20037;-78
2023/07/15 08:12:50;;;;;;;0.20;0.20;;;23.70;99.40;;;;;;5027872;28;20384;-78
2023/07/15 08:15:15;;;;;;;0.20;0.20;;;23.80;99.30;;;;;;5022990;28;20106;-81
2023/07/15 08:17:41;;;;;;;0.20;0.20;;;23.80;99.30;;;;;;5046062;28;20047;-78
2023/07/15 08:20:11;;;;;;;0.20;0.20;;;23.80;99.20;;;;;;5049446;28;20037;-78
2023/07/15 08:22:37;;;;;;;0.20;0.20;;;23.80;99.10;;;;;;5050246;28;20124;-79
2023/07/15 08:25:03;;;;;;;0.13;0.13;;;23.80;98.80;;;;;;5048255;28;20037;-78
2023/07/15 08:27:29;;;;;;;0.20;0.20;;;23.80;98.90;;;;;;5030640;28;20045;-78
2023/07/15 08:29:54;;;;;;;0.20;0.20;;;23.80;99.00;;;;;;5048297;28;20069;-78
2023/07/15 08:32:20;;;;;;;0.20;0.20;;;23.90;99.00;;;;;;5039954;28;20512;-78
2023/07/15 08:35:03;;;;;;;0.20;0.20;;;23.90;99.00;;;;;;5049592;28;20325;-78
2023/07/15 08:37:30;;;;;;;0.20;0.20;;;24.00;99.00;;;;;;5044502;28;20420;-77
2023/07/15 08:39:55;;;;;;;0.20;0.20;;;24.00;98.90;;;;;;5047654;28;20044;-78
2023/07/15 08:42:23;;;;;;;0.20;0.20;;;24.10;98.80;;;;;;5048558;28;20037;-77
2023/07/15 08:44:50;;;;;;;0.20;0.20;;;24.10;98.90;;;;;;5046908;28;20040;-78
2023/07/15 08:47:20;;;;;;;0.20;0.20;;;24.30;99.00;;;;;;5046732;28;20369;-79
2023/07/15 08:49:48;;;;;;;0.30;0.30;;;24.30;98.80;;;;;;5046113;28;20051;-79
2023/07/15 08:52:17;;;;;;;0.20;0.20;;;24.40;98.50;;;;;;5049362;28;20412;-78
2023/07/15 08:54:43;;;;;;;0.20;0.20;;;24.40;98.20;;;;;;5045356;28;20037;-79
2023/07/15 08:57:10;;;;;;;0.20;0.20;;;24.30;98.20;;;;;;5045269;28;20082;-78
2023/07/15 08:59:36;;;;;;;0.20;0.20;;;24.40;98.40;;;;;;5045969;28;20468;-78
2023/07/15 09:02:02;;;;;;;0.20;0.20;;;24.40;98.40;;;;;;5045899;28;20068;-79
2023/07/15 09:04:29;;;;;;;0.20;0.20;;;24.50;98.20;;;;;;5047514;28;20041;-78
2023/07/15 09:06:56;;;;;;;0.20;0.20;;;24.50;98.00;;;;;;5049988;28;20041;-79
2023/07/15 09:09:51;;;;;;;0.20;0.20;;;24.50;97.80;;;;;;5048221;28;20037;-78
2023/07/15 09:12:16;;;;;;;0.20;0.20;;;24.50;97.80;;;;;;5037236;28;20053;-79
2023/07/15 09:14:44;;;;;;;0.20;0.20;;;24.60;97.80;;;;;;5047581;28;20382;-78
2023/07/15 09:17:15;;;;;;;0.20;0.20;;;24.60;97.70;;;;;;5046960;28;20111;-79
2023/07/15 09:19:43;;;;;;;0.20;0.20;;;24.60;97.70;;;;;;5045669;28;20055;-79
2023/07/15 09:22:09;;;;;;;0.20;0.20;;;24.60;97.50;;;;;;5047413;28;20443;-78
2023/07/15 09:24:39;;;;;;;0.20;0.20;;;24.60;97.60;;;;;;5046956;28;20036;-78
2023/07/15 09:27:06;;;;;;;0.20;0.20;;;24.50;97.70;;;;;;5047534;28;20116;-78
2023/07/15 09:29:32;;;;;;;0.20;0.20;;;24.50;97.80;;;;;;5056082;28;20122;-78
2023/07/15 09:31:58;;;;;;;0.20;0.20;;;24.50;97.90;;;;;;5047006;28;20050;-77
2023/07/15 09:34:25;;;;;;;0.20;0.20;;;24.50;98.10;;;;;;5030126;28;20052;-78
2023/07/15 09:36:52;;;;;;;0.20;0.20;;;24.50;98.20;;;;;;5047930;28;20059;-78
2023/07/15 09:39:19;;;;;;;0.20;0.20;;;24.50;98.20;;;;;;5021597;28;20049;-78
2023/07/15 09:42:01;;;;;;;0.20;0.20;;;24.60;98.30;;;;;;5048185;28;20377;-78
2023/07/15 09:44:39;;;;;;;0.20;0.20;;;24.60;98.20;;;;;;5047094;28;20045;-79
2023/07/15 09:47:06;;;;;;;0.20;0.20;;;24.60;98.10;;;;;;5047200;28;20045;-78
2023/07/15 09:49:32;;;;;;;0.20;0.20;;;24.60;98.10;;;;;;5029880;28;20040;-78
2023/07/15 09:51:59;;;;;;;0.20;0.20;;;24.70;98.20;;;;;;5049021;28;20041;-78
2023/07/15 09:54:30;;;;;;;0.20;0.20;;;24.70;98.20;;;;;;5021220;28;20045;-78
2023/07/15 09:57:17;;;;;;;0.20;0.20;;;24.80;98.30;;;;;;5046177;28;20083;-78
2023/07/15 09:59:52;;;;;;;0.20;0.20;;;24.90;98.40;;;;;;5046641;28;20048;-78
2023/07/15 10:02:37;;;;;;;0.20;0.20;;;25.00;98.30;;;;;;5029953;28;20076;-78
2023/07/15 10:05:04;;;;;;;0.20;0.20;;;25.00;98.20;;;;;;5046359;28;20124;-77
2023/07/15 10:07:31;;;;;;;0.20;0.20;;;25.10;98.40;;;;;;5047261;28;20049;-77
2023/07/15 10:09:59;;;;;;;0.20;0.20;;;25.10;98.00;;;;;;5028677;28;20064;-77
2023/07/15 10:12:29;;;;;;;0.20;0.20;;;25.10;98.20;;;;;;5029465;28;20496;-77
2023/07/15 10:14:56;;;;;;;0.20;0.20;;;25.10;98.20;;;;;;5028333;28;20064;-78
2023/07/15 10:17:22;;;;;;;0.20;0.20;;;25.10;98.20;;;;;;5030772;28;20127;-79
2023/07/15 10:19:52;;;;;;;0.20;0.20;;;25.30;98.40;;;;;;5024642;28;20461;-77
2023/07/15 10:22:19;;;;;;;;;;;25.40;98.30;;;;;;5030923;28;20048;-78
2023/07/15 10:24:56;;;;;;;0.20;0.20;;;25.50;97.90;;;;;;5029890;28;19928;-78
2023/07/15 10:27:25;;;;;;;0.20;0.20;;;25.50;98.00;;;;;;5048550;28;20047;-78
2023/07/15 10:30:20;;;;;;;0.20;0.20;;;25.60;98.10;;;;;;5027222;28;20128;-78
2023/07/15 10:33:01;;;;;;;0.20;0.20;;;25.60;97.60;;;;;;5046208;28;20167;-78
2023/07/15 10:35:32;;;;;;;0.20;0.20;;;25.60;97.60;;;;;;5050735;28;20142;-78
2023/07/15 10:38:09;;;;;;;0.20;0.20;;;25.70;97.40;;;;;;5050636;28;20067;-77
2023/07/15 10:40:46;;;;;;;0.20;0.20;;;25.70;97.30;;;;;;5050903;28;20045;-78
2023/07/15 10:43:16;;;;;;;0.20;0.20;;;25.70;97.40;;;;;;5042357;28;20098;-78
2023/07/15 10:45:42;;;;;;;0.20;0.20;;;25.60;97.40;;;;;;5051774;28;20149;-78
2023/07/15 10:48:11;;;;;;;0.20;0.20;;;25.60;97.40;;;;;;5050809;28;20691;-77
2023/07/15 10:50:38;;;;;;;0.20;0.20;;;25.60;97.50;;;;;;5048106;28;20037;-78
2023/07/15 10:53:22;;;;;;;0.20;0.20;;;25.50;97.00;;;;;;5051571;28;20048;-78
2023/07/15 10:55:59;;;;;;;0.20;0.20;;;25.50;96.90;;;;;;5042467;28;20053;-77
2023/07/15 10:58:29;;;;;;;0.20;0.20;;;25.50;97.00;;;;;;5048774;28;20045;-76
2023/07/15 11:01:05;;;;;;;;;;;25.60;96.90;;;;;;5048735;28;20098;-78
2023/07/15 11:03:36;;;;;;;0.20;0.20;;;25.60;96.80;;;;;;5047120;28;20093;-77
2023/07/15 11:06:02;;;;;;;0.10;0.10;;;25.60;97.00;;;;;;5051847;28;20528;-78
2023/07/15 11:08:29;;;;;;;0.20;0.20;;;25.70;97.30;;;;;;5050153;28;20048;-78
2023/07/15 11:11:03;;;;;;;0.20;0.20;;;25.80;97.30;;;;;;5048805;28;20098;-78
2023/07/15 11:13:29;;;;;;;0.20;0.20;;;25.90;97.40;;;;;;5049240;28;20266;-77
2023/07/15 11:15:56;;;;;;;0.20;0.20;;;25.90;97.40;;;;;;5048279;28;20048;-78
2023/07/15 11:18:24;;;;;;;0.20;0.20;;;26.00;97.20;;;;;;5050683;28;20443;-78
2023/07/15 11:20:56;;;;;;;0.20;0.20;;;26.10;97.50;;;;;;5051464;28;20120;-76
2023/07/15 11:23:22;;;;;;;0.20;0.20;;;26.20;97.10;;;;;;5051263;28;20041;-77
2023/07/15 11:25:48;;;;;;;0.20;0.20;;;26.20;96.60;;;;;;5048511;28;20080;-77
2023/07/15 11:28:14;;;;;;;0.20;0.20;;;26.30;97.00;;;;;;5047548;28;20117;-78
2023/07/15 11:30:42;;;;;;;0.20;0.20;;;26.40;97.30;;;;;;5049031;28;20124;-77
2023/07/15 11:33:08;;;;;;;0.20;0.20;;;26.50;96.80;;;;;;5044616;28;20065;-78
2023/07/15 11:35:36;;;;;;;0.20;0.20;;;26.60;96.50;;;;;;5045133;28;20095;-77
2023/07/15 11:38:07;;;;;;;0.20;0.20;;;26.50;96.00;;;;;;5030734;28;20044;-77
2023/07/15 11:40:35;;;;;;;0.20;0.20;;;26.50;95.90;;;;;;5050524;28;20091;-77
2023/07/15 11:43:00;;;;;;;0.20;0.20;;;26.50;95.60;;;;;;5046850;28;20072;-78
2023/07/15 11:45:26;;;;;;;0.20;0.20;;;26.50;95.50;;;;;;5050295;28;20080;-78
2023/07/15 11:47:54;;;;;;;0.20;0.20;;;26.40;95.20;;;;;;5031314;28;20072;-78
2023/07/15 11:50:26;;;;;;;0.20;0.20;;;26.40;95.30;;;;;;5032336;28;20083;-78
2023/07/15 11:52:51;;;;;;;0.20;0.20;;;26.40;95.40;;;;;;5032472;28;20045;-78
2023/07/15 11:55:24;;;;;;;0.20;0.20;;;26.40;95.30;;;;;;5033437;28;20051;-77
2023/07/15 11:57:50;;;;;;;0.20;0.20;;;26.30;94.70;;;;;;5047941;28;20045;-77
2023/07/15 12:00:33;;;;;;;0.20;0.20;;;26.30;94.80;;;;;;5048774;28;20374;-78
2023/07/15 12:03:07;;;;;;;0.20;0.20;;;26.30;94.40;;;;;;5023423;28;20053;-78
2023/07/15 12:05:37;;;;;;;0.20;0.20;;;26.30;94.60;;;;;;5031330;28;20532;-79
2023/07/15 12:08:11;;;;;;;0.20;0.20;;;26.40;95.10;;;;;;5030575;28;20091;-79
2023/07/15 12:10:49;;;;;;;0.20;0.20;;;26.40;94.90;;;;;;5032575;28;20041;-79
2023/07/15 12:13:14;;;;;;;0.20;0.20;;;26.40;94.90;;;;;;5048827;28;20103;-78
2023/07/15 12:15:40;;;;;;;0.20;0.20;;;26.40;95.00;;;;;;5048202;28;20053;-78
2023/07/15 12:18:06;;;;;;;0.20;0.20;;;26.50;95.40;;;;;;5031574;28;20152;-77
2023/07/15 12:20:31;;;;;;;0.20;0.20;;;26.50;95.10;;;;;;5031296;28;20048;-77
2023/07/15 12:22:57;;;;;;;0.20;0.20;;;26.50;94.80;;;;;;5049100;28;20374;-78
2023/07/15 12:25:24;;;;;;;0.20;0.20;;;26.50;95.00;;;;;;5048441;28;20095;-77
2023/07/15 12:27:50;;;;;;;0.20;0.20;;;26.70;94.80;;;;;;5030119;28;20481;-78
2023/07/15 12:30:15;;;;;;;0.20;0.20;;;26.80;94.80;;;;;;5050238;28;20045;-77
2023/07/15 12:32:41;;;;;;;0.20;0.20;;;26.90;94.40;;;;;;5041708;28;20488;-78
2023/07/15 12:35:07;;;;;;;0.20;0.20;;;27.10;95.00;;;;;;5045431;28;20056;-77
2023/07/15 12:37:33;;;;;;;0.20;0.20;;;27.20;94.80;;;;;;5048470;28;20041;-77
2023/07/15 12:39:59;;;;;;;0.20;0.20;;;27.30;94.70;;;;;;5048370;28;20053;-77
2023/07/15 12:42:24;;;;;;;0.20;0.20;;;27.50;94.60;;;;;;5047988;28;20045;-76
2023/07/15 12:44:50;;;;;;;0.20;0.20;;;27.50;93.80;;;;;;5047113;28;20136;-76
2023/07/15 12:47:16;;;;;;;0.20;0.20;;;27.50;93.50;;;;;;5049232;28;20048;-77
2023/07/15 12:49:41;;;;;;;0.20;0.20;;;27.50;93.80;;;;;;5046081;28;20374;-77